sensor_id;sensor_type;location;lat;lon;timestamp;P1;durP1;ratioP1;P2;durP2;ratioP2
36443;SDS011;24692;45.642;13.806;2024-01-27T00:00:43;49.73;;;30.53;;
36443;SDS011;24692;45.642;13.806;2024-01-27T00:03:09;48.53;;;31.40;;
36443;SDS011;24692;45.642;13.806;2024-01-27T00:05:34;47.30;;;30.80;;
36443;SDS011;24692;45.642;13.806;2024-01-27T00:08:00;51.17;;;32.50;;
36443;SDS011;24692;45.642;13.806;2024-01-27T00:10:26;48.53;;;32.23;;
36443;SDS011;24692;45.642;13.806;2024-01-27T00:12:51;59.93;;;37.23;;
36443;SDS011;24692;45.642;13.806;2024-01-27T00:15:17;60.00;;;34.20;;
36443;SDS011;24692;45.642;13.806;2024-01-27T00:17:43;56.93;;;34.07;;
36443;SDS011;24692;45.642;13.806;2024-01-27T00:20:08;48.60;;;31.00;;
36443;SDS011;24692;45.642;13.806;2024-01-27T00:22:34;53.80;;;32.63;;
36443;SDS011;24692;45.642;13.806;2024-01-27T00:25:00;53.33;;;32.90;;
36443;SDS011;24692;45.642;13.806;2024-01-27T00:27:26;48.57;;;31.83;;
36443;SDS011;24692;45.642;13.806;2024-01-27T00:29:51;54.93;;;34.37;;
36443;SDS011;24692;45.642;13.806;2024-01-27T00:32:17;55.77;;;36.13;;
36443;SDS011;24692;45.642;13.806;2024-01-27T00:34:43;68.23;;;39.67;;
36443;SDS011;24692;45.642;13.806;2024-01-27T00:37:08;60.53;;;34.17;;
36443;SDS011;24692;45.642;13.806;2024-01-27T00:39:34;56.93;;;35.90;;
36443;SDS011;24692;45.642;13.806;2024-01-27T00:42:00;51.07;;;32.83;;
36443;SDS011;24692;45.642;13.806;2024-01-27T00:44:25;53.27;;;32.37;;
36443;SDS011;24692;45.642;13.806;2024-01-27T00:46:51;52.60;;;31.13;;
36443;SDS011;24692;45.642;13.806;2024-01-27T00:49:17;51.10;;;31.43;;
36443;SDS011;24692;45.642;13.806;2024-01-27T00:51:43;51.93;;;32.40;;
36443;SDS011;24692;45.642;13.806;2024-01-27T00:54:08;59.07;;;34.80;;
36443;SDS011;24692;45.642;13.806;2024-01-27T00:56:38;51.13;;;30.73;;
36443;SDS011;24692;45.642;13.806;2024-01-27T00:59:04;45.90;;;28.50;;
36443;SDS011;24692;45.642;13.806;2024-01-27T01:01:29;44.70;;;27.17;;
36443;SDS011;24692;45.642;13.806;2024-01-27T01:03:55;39.37;;;24.50;;
36443;SDS011;24692;45.642;13.806;2024-01-27T01:06:21;37.97;;;24.60;;
36443;SDS011;24692;45.642;13.806;2024-01-27T01:08:48;37.17;;;23.30;;
36443;SDS011;24692;45.642;13.806;2024-01-27T01:11:13;36.83;;;23.43;;
36443;SDS011;24692;45.642;13.806;2024-01-27T01:13:39;48.03;;;26.10;;
36443;SDS011;24692;45.642;13.806;2024-01-27T01:16:05;37.27;;;24.60;;
36443;SDS011;24692;45.642;13.806;2024-01-27T01:18:33;39.67;;;24.30;;
36443;SDS011;24692;45.642;13.806;2024-01-27T01:20:58;36.90;;;22.87;;
36443;SDS011;24692;45.642;13.806;2024-01-27T01:23:24;35.17;;;22.73;;
36443;SDS011;24692;45.642;13.806;2024-01-27T01:25:49;36.30;;;24.00;;
36443;SDS011;24692;45.642;13.806;2024-01-27T01:28:15;42.30;;;26.13;;
36443;SDS011;24692;45.642;13.806;2024-01-27T01:30:41;46.07;;;28.97;;
36443;SDS011;24692;45.642;13.806;2024-01-27T01:33:06;45.67;;;28.30;;
36443;SDS011;24692;45.642;13.806;2024-01-27T01:35:32;39.27;;;24.57;;
36443;SDS011;24692;45.642;13.806;2024-01-27T01:37:58;47.00;;;28.63;;
36443;SDS011;24692;45.642;13.806;2024-01-27T01:40:23;42.23;;;25.93;;
36443;SDS011;24692;45.642;13.806;2024-01-27T01:42:52;42.60;;;25.70;;
36443;SDS011;24692;45.642;13.806;2024-01-27T01:45:18;51.20;;;30.53;;
36443;SDS011;24692;45.642;13.806;2024-01-27T01:47:44;36.27;;;22.83;;
36443;SDS011;24692;45.642;13.806;2024-01-27T01:50:09;33.37;;;21.50;;
36443;SDS011;24692;45.642;13.806;2024-01-27T01:52:36;37.03;;;22.83;;
36443;SDS011;24692;45.642;13.806;2024-01-27T01:55:03;33.67;;;21.77;;
36443;SDS011;24692;45.642;13.806;2024-01-27T01:57:30;37.90;;;22.07;;
36443;SDS011;24692;45.642;13.806;2024-01-27T01:59:56;34.63;;;21.20;;
36443;SDS011;24692;45.642;13.806;2024-01-27T02:02:21;38.40;;;25.00;;
36443;SDS011;24692;45.642;13.806;2024-01-27T02:04:47;33.83;;;22.27;;
36443;SDS011;24692;45.642;13.806;2024-01-27T02:07:13;35.20;;;21.40;;
36443;SDS011;24692;45.642;13.806;2024-01-27T02:09:39;43.77;;;25.67;;
36443;SDS011;24692;45.642;13.806;2024-01-27T02:12:04;40.03;;;24.43;;
36443;SDS011;24692;45.642;13.806;2024-01-27T02:14:31;39.70;;;25.13;;
36443;SDS011;24692;45.642;13.806;2024-01-27T02:16:56;42.27;;;27.20;;
36443;SDS011;24692;45.642;13.806;2024-01-27T02:19:23;44.00;;;27.03;;
36443;SDS011;24692;45.642;13.806;2024-01-27T02:21:49;44.43;;;25.83;;
36443;SDS011;24692;45.642;13.806;2024-01-27T02:24:15;36.20;;;23.43;;
36443;SDS011;24692;45.642;13.806;2024-01-27T02:26:40;42.80;;;25.50;;
36443;SDS011;24692;45.642;13.806;2024-01-27T02:29:06;31.50;;;19.13;;
36443;SDS011;24692;45.642;13.806;2024-01-27T02:31:32;42.43;;;26.17;;
36443;SDS011;24692;45.642;13.806;2024-01-27T02:33:57;33.03;;;20.73;;
36443;SDS011;24692;45.642;13.806;2024-01-27T02:36:23;32.77;;;20.47;;
36443;SDS011;24692;45.642;13.806;2024-01-27T02:38:49;52.73;;;30.87;;
36443;SDS011;24692;45.642;13.806;2024-01-27T02:41:14;39.93;;;25.67;;
36443;SDS011;24692;45.642;13.806;2024-01-27T02:43:40;41.13;;;25.40;;
36443;SDS011;24692;45.642;13.806;2024-01-27T02:46:11;56.20;;;31.97;;
36443;SDS011;24692;45.642;13.806;2024-01-27T02:48:41;49.93;;;31.40;;
36443;SDS011;24692;45.642;13.806;2024-01-27T02:51:07;50.20;;;29.70;;
36443;SDS011;24692;45.642;13.806;2024-01-27T02:53:33;64.60;;;37.93;;
36443;SDS011;24692;45.642;13.806;2024-01-27T02:55:59;49.80;;;31.33;;
36443;SDS011;24692;45.642;13.806;2024-01-27T02:58:25;53.40;;;31.83;;
36443;SDS011;24692;45.642;13.806;2024-01-27T03:00:50;55.23;;;33.63;;
36443;SDS011;24692;45.642;13.806;2024-01-27T03:03:16;59.20;;;35.67;;
36443;SDS011;24692;45.642;13.806;2024-01-27T03:05:42;67.63;;;40.23;;
36443;SDS011;24692;45.642;13.806;2024-01-27T03:08:07;71.07;;;39.60;;
36443;SDS011;24692;45.642;13.806;2024-01-27T03:10:33;71.53;;;39.73;;
36443;SDS011;24692;45.642;13.806;2024-01-27T03:12:59;69.60;;;40.67;;
36443;SDS011;24692;45.642;13.806;2024-01-27T03:15:24;84.83;;;49.20;;
36443;SDS011;24692;45.642;13.806;2024-01-27T03:17:50;64.83;;;38.60;;
36443;SDS011;24692;45.642;13.806;2024-01-27T03:20:16;58.53;;;33.47;;
36443;SDS011;24692;45.642;13.806;2024-01-27T03:22:41;47.73;;;29.80;;
36443;SDS011;24692;45.642;13.806;2024-01-27T03:25:07;45.40;;;26.50;;
36443;SDS011;24692;45.642;13.806;2024-01-27T03:27:35;38.33;;;23.30;;
36443;SDS011;24692;45.642;13.806;2024-01-27T03:30:01;37.70;;;23.53;;
36443;SDS011;24692;45.642;13.806;2024-01-27T03:32:28;38.10;;;23.33;;
36443;SDS011;24692;45.642;13.806;2024-01-27T03:34:57;45.67;;;27.60;;
36443;SDS011;24692;45.642;13.806;2024-01-27T03:37:23;46.30;;;27.57;;
36443;SDS011;24692;45.642;13.806;2024-01-27T03:39:49;50.17;;;28.27;;
36443;SDS011;24692;45.642;13.806;2024-01-27T03:42:15;47.77;;;27.97;;
36443;SDS011;24692;45.642;13.806;2024-01-27T03:44:40;51.83;;;30.43;;
36443;SDS011;24692;45.642;13.806;2024-01-27T03:47:06;65.70;;;36.07;;
36443;SDS011;24692;45.642;13.806;2024-01-27T03:49:31;51.10;;;30.53;;
36443;SDS011;24692;45.642;13.806;2024-01-27T03:51:57;44.60;;;26.37;;
36443;SDS011;24692;45.642;13.806;2024-01-27T03:54:23;36.17;;;22.97;;
36443;SDS011;24692;45.642;13.806;2024-01-27T03:56:48;75.77;;;43.03;;
36443;SDS011;24692;45.642;13.806;2024-01-27T03:59:14;51.10;;;31.40;;
36443;SDS011;24692;45.642;13.806;2024-01-27T04:01:40;42.40;;;24.13;;
36443;SDS011;24692;45.642;13.806;2024-01-27T04:04:05;39.67;;;24.10;;
36443;SDS011;24692;45.642;13.806;2024-01-27T04:06:37;41.70;;;26.00;;
36443;SDS011;24692;45.642;13.806;2024-01-27T04:09:06;41.87;;;25.00;;
36443;SDS011;24692;45.642;13.806;2024-01-27T04:11:34;53.80;;;30.57;;
36443;SDS011;24692;45.642;13.806;2024-01-27T04:14:00;57.73;;;33.70;;
36443;SDS011;24692;45.642;13.806;2024-01-27T04:16:26;54.83;;;31.87;;
36443;SDS011;24692;45.642;13.806;2024-01-27T04:18:52;57.43;;;32.40;;
36443;SDS011;24692;45.642;13.806;2024-01-27T04:21:18;61.57;;;34.83;;
36443;SDS011;24692;45.642;13.806;2024-01-27T04:23:44;55.47;;;32.90;;
36443;SDS011;24692;45.642;13.806;2024-01-27T04:26:09;57.37;;;32.57;;
36443;SDS011;24692;45.642;13.806;2024-01-27T04:28:35;59.77;;;35.47;;
36443;SDS011;24692;45.642;13.806;2024-01-27T04:31:01;60.23;;;36.57;;
36443;SDS011;24692;45.642;13.806;2024-01-27T04:33:27;62.23;;;38.27;;
36443;SDS011;24692;45.642;13.806;2024-01-27T04:35:53;69.40;;;38.93;;
36443;SDS011;24692;45.642;13.806;2024-01-27T04:38:18;60.63;;;34.33;;
36443;SDS011;24692;45.642;13.806;2024-01-27T04:40:44;52.70;;;31.57;;
36443;SDS011;24692;45.642;13.806;2024-01-27T04:43:14;59.90;;;33.47;;
36443;SDS011;24692;45.642;13.806;2024-01-27T04:45:43;61.83;;;37.40;;
36443;SDS011;24692;45.642;13.806;2024-01-27T04:48:09;67.87;;;38.87;;
36443;SDS011;24692;45.642;13.806;2024-01-27T04:50:35;71.70;;;43.40;;
36443;SDS011;24692;45.642;13.806;2024-01-27T04:53:01;69.70;;;40.23;;
36443;SDS011;24692;45.642;13.806;2024-01-27T04:55:27;72.03;;;41.20;;
36443;SDS011;24692;45.642;13.806;2024-01-27T04:57:53;80.20;;;45.03;;
36443;SDS011;24692;45.642;13.806;2024-01-27T05:00:19;69.10;;;39.43;;
36443;SDS011;24692;45.642;13.806;2024-01-27T05:02:45;61.83;;;36.77;;
36443;SDS011;24692;45.642;13.806;2024-01-27T05:05:11;64.83;;;36.60;;
36443;SDS011;24692;45.642;13.806;2024-01-27T05:07:37;64.80;;;39.43;;
36443;SDS011;24692;45.642;13.806;2024-01-27T05:10:03;73.77;;;39.80;;
36443;SDS011;24692;45.642;13.806;2024-01-27T05:12:30;60.53;;;36.07;;
36443;SDS011;24692;45.642;13.806;2024-01-27T05:14:55;66.27;;;38.50;;
36443;SDS011;24692;45.642;13.806;2024-01-27T05:17:21;61.93;;;35.77;;
36443;SDS011;24692;45.642;13.806;2024-01-27T05:19:47;71.50;;;40.43;;
36443;SDS011;24692;45.642;13.806;2024-01-27T05:22:14;79.83;;;44.97;;
36443;SDS011;24692;45.642;13.806;2024-01-27T05:24:40;65.33;;;37.43;;
36443;SDS011;24692;45.642;13.806;2024-01-27T05:27:05;53.70;;;31.87;;
36443;SDS011;24692;45.642;13.806;2024-01-27T05:29:31;50.00;;;30.37;;
36443;SDS011;24692;45.642;13.806;2024-01-27T05:31:57;53.70;;;32.50;;
36443;SDS011;24692;45.642;13.806;2024-01-27T05:34:22;55.77;;;31.03;;
36443;SDS011;24692;45.642;13.806;2024-01-27T05:36:48;54.17;;;31.93;;
36443;SDS011;24692;45.642;13.806;2024-01-27T05:39:14;58.83;;;34.50;;
36443;SDS011;24692;45.642;13.806;2024-01-27T05:41:40;53.00;;;32.63;;
36443;SDS011;24692;45.642;13.806;2024-01-27T05:44:05;34.53;;;22.07;;
36443;SDS011;24692;45.642;13.806;2024-01-27T05:46:31;40.67;;;25.87;;
36443;SDS011;24692;45.642;13.806;2024-01-27T05:48:57;42.50;;;26.97;;
36443;SDS011;24692;45.642;13.806;2024-01-27T05:51:27;40.97;;;24.63;;
36443;SDS011;24692;45.642;13.806;2024-01-27T05:53:53;28.50;;;18.17;;
36443;SDS011;24692;45.642;13.806;2024-01-27T05:56:19;26.40;;;17.97;;
36443;SDS011;24692;45.642;13.806;2024-01-27T05:58:47;30.53;;;19.53;;
36443;SDS011;24692;45.642;13.806;2024-01-27T06:01:13;35.20;;;21.63;;
36443;SDS011;24692;45.642;13.806;2024-01-27T06:03:42;40.77;;;24.13;;
36443;SDS011;24692;45.642;13.806;2024-01-27T06:06:09;42.53;;;25.60;;
36443;SDS011;24692;45.642;13.806;2024-01-27T06:08:35;47.87;;;28.60;;
36443;SDS011;24692;45.642;13.806;2024-01-27T06:11:01;37.33;;;23.33;;
36443;SDS011;24692;45.642;13.806;2024-01-27T06:13:28;49.80;;;30.10;;
36443;SDS011;24692;45.642;13.806;2024-01-27T06:15:54;58.63;;;33.27;;
36443;SDS011;24692;45.642;13.806;2024-01-27T06:18:19;56.40;;;32.40;;
36443;SDS011;24692;45.642;13.806;2024-01-27T06:20:45;61.17;;;35.40;;
36443;SDS011;24692;45.642;13.806;2024-01-27T06:23:11;64.13;;;35.10;;
36443;SDS011;24692;45.642;13.806;2024-01-27T06:25:37;71.70;;;42.80;;
36443;SDS011;24692;45.642;13.806;2024-01-27T06:28:03;77.40;;;43.60;;
36443;SDS011;24692;45.642;13.806;2024-01-27T06:30:28;85.27;;;45.87;;
36443;SDS011;24692;45.642;13.806;2024-01-27T06:32:54;72.47;;;41.03;;
36443;SDS011;24692;45.642;13.806;2024-01-27T06:35:20;72.37;;;41.37;;
36443;SDS011;24692;45.642;13.806;2024-01-27T06:37:45;102.43;;;55.27;;
36443;SDS011;24692;45.642;13.806;2024-01-27T06:40:12;88.20;;;50.27;;
36443;SDS011;24692;45.642;13.806;2024-01-27T06:42:38;89.33;;;50.23;;
36443;SDS011;24692;45.642;13.806;2024-01-27T06:45:03;81.77;;;48.30;;
36443;SDS011;24692;45.642;13.806;2024-01-27T06:47:30;86.13;;;49.03;;
36443;SDS011;24692;45.642;13.806;2024-01-27T06:49:55;82.97;;;46.80;;
36443;SDS011;24692;45.642;13.806;2024-01-27T06:52:21;88.40;;;50.20;;
36443;SDS011;24692;45.642;13.806;2024-01-27T06:54:46;80.93;;;46.87;;
36443;SDS011;24692;45.642;13.806;2024-01-27T06:57:22;69.17;;;41.70;;
36443;SDS011;24692;45.642;13.806;2024-01-27T06:59:49;77.93;;;43.37;;
36443;SDS011;24692;45.642;13.806;2024-01-27T07:02:23;72.10;;;42.67;;
36443;SDS011;24692;45.642;13.806;2024-01-27T07:04:49;71.07;;;41.73;;
36443;SDS011;24692;45.642;13.806;2024-01-27T07:07:15;68.87;;;40.33;;
36443;SDS011;24692;45.642;13.806;2024-01-27T07:09:41;68.47;;;39.90;;
36443;SDS011;24692;45.642;13.806;2024-01-27T07:12:06;68.53;;;40.83;;
36443;SDS011;24692;45.642;13.806;2024-01-27T07:14:34;69.40;;;41.33;;
36443;SDS011;24692;45.642;13.806;2024-01-27T07:17:00;71.47;;;40.60;;
36443;SDS011;24692;45.642;13.806;2024-01-27T07:19:26;63.43;;;39.50;;
36443;SDS011;24692;45.642;13.806;2024-01-27T07:21:51;68.13;;;39.97;;
36443;SDS011;24692;45.642;13.806;2024-01-27T07:24:17;67.20;;;38.47;;
36443;SDS011;24692;45.642;13.806;2024-01-27T07:26:43;62.53;;;39.17;;
36443;SDS011;24692;45.642;13.806;2024-01-27T07:29:08;65.30;;;37.70;;
36443;SDS011;24692;45.642;13.806;2024-01-27T07:31:34;52.63;;;32.67;;
36443;SDS011;24692;45.642;13.806;2024-01-27T07:34:00;46.10;;;30.70;;
36443;SDS011;24692;45.642;13.806;2024-01-27T07:36:25;42.63;;;29.23;;
36443;SDS011;24692;45.642;13.806;2024-01-27T07:38:56;38.33;;;27.20;;
36443;SDS011;24692;45.642;13.806;2024-01-27T07:41:21;42.80;;;28.77;;
36443;SDS011;24692;45.642;13.806;2024-01-27T07:43:47;36.90;;;26.27;;
36443;SDS011;24692;45.642;13.806;2024-01-27T07:46:13;36.37;;;27.60;;
36443;SDS011;24692;45.642;13.806;2024-01-27T07:48:38;33.90;;;25.73;;
36443;SDS011;24692;45.642;13.806;2024-01-27T07:51:04;29.70;;;23.03;;
36443;SDS011;24692;45.642;13.806;2024-01-27T07:53:30;36.58;;;24.73;;
36443;SDS011;24692;45.642;13.806;2024-01-27T07:55:55;30.42;;;23.83;;
36443;SDS011;24692;45.642;13.806;2024-01-27T07:58:21;34.17;;;25.77;;
36443;SDS011;24692;45.642;13.806;2024-01-27T08:00:47;28.20;;;22.08;;
36443;SDS011;24692;45.642;13.806;2024-01-27T08:03:12;29.27;;;22.97;;
36443;SDS011;24692;45.642;13.806;2024-01-27T08:05:38;30.58;;;24.50;;
36443;SDS011;24692;45.642;13.806;2024-01-27T08:08:04;27.88;;;21.75;;
36443;SDS011;24692;45.642;13.806;2024-01-27T08:10:29;32.55;;;25.55;;
36443;SDS011;24692;45.642;13.806;2024-01-27T08:12:55;30.25;;;24.25;;
36443;SDS011;24692;45.642;13.806;2024-01-27T08:15:21;26.83;;;22.65;;
36443;SDS011;24692;45.642;13.806;2024-01-27T08:17:46;30.95;;;23.65;;
36443;SDS011;24692;45.642;13.806;2024-01-27T08:20:12;26.67;;;21.98;;
36443;SDS011;24692;45.642;13.806;2024-01-27T08:22:38;26.13;;;20.38;;
36443;SDS011;24692;45.642;13.806;2024-01-27T08:25:04;24.15;;;20.88;;
36443;SDS011;24692;45.642;13.806;2024-01-27T08:27:29;27.75;;;22.27;;
36443;SDS011;24692;45.642;13.806;2024-01-27T08:29:55;23.98;;;21.23;;
36443;SDS011;24692;45.642;13.806;2024-01-27T08:32:21;31.05;;;24.63;;
36443;SDS011;24692;45.642;13.806;2024-01-27T08:34:47;27.35;;;23.95;;
36443;SDS011;24692;45.642;13.806;2024-01-27T08:37:17;29.98;;;25.33;;
36443;SDS011;24692;45.642;13.806;2024-01-27T08:39:44;32.08;;;27.17;;
36443;SDS011;24692;45.642;13.806;2024-01-27T08:42:10;29.50;;;25.05;;
36443;SDS011;24692;45.642;13.806;2024-01-27T08:44:36;33.60;;;27.13;;
36443;SDS011;24692;45.642;13.806;2024-01-27T08:47:02;33.58;;;28.67;;
36443;SDS011;24692;45.642;13.806;2024-01-27T08:49:28;34.03;;;29.00;;
36443;SDS011;24692;45.642;13.806;2024-01-27T08:51:54;35.15;;;28.00;;
36443;SDS011;24692;45.642;13.806;2024-01-27T08:54:20;34.40;;;27.10;;
36443;SDS011;24692;45.642;13.806;2024-01-27T08:56:46;41.35;;;33.97;;
36443;SDS011;24692;45.642;13.806;2024-01-27T08:59:12;36.95;;;32.92;;
36443;SDS011;24692;45.642;13.806;2024-01-27T09:01:38;38.97;;;33.50;;
36443;SDS011;24692;45.642;13.806;2024-01-27T09:04:03;39.38;;;33.97;;
36443;SDS011;24692;45.642;13.806;2024-01-27T09:06:29;37.88;;;32.78;;
36443;SDS011;24692;45.642;13.806;2024-01-27T09:08:55;39.20;;;33.78;;
36443;SDS011;24692;45.642;13.806;2024-01-27T09:11:20;37.47;;;32.05;;
36443;SDS011;24692;45.642;13.806;2024-01-27T09:13:52;35.78;;;30.30;;
36443;SDS011;24692;45.642;13.806;2024-01-27T09:16:18;40.38;;;34.20;;
36443;SDS011;24692;45.642;13.806;2024-01-27T09:18:44;38.00;;;30.50;;
36443;SDS011;24692;45.642;13.806;2024-01-27T09:21:10;37.88;;;32.80;;
36443;SDS011;24692;45.642;13.806;2024-01-27T09:23:37;37.55;;;31.38;;
36443;SDS011;24692;45.642;13.806;2024-01-27T09:26:03;39.97;;;34.70;;
36443;SDS011;24692;45.642;13.806;2024-01-27T09:28:29;44.75;;;38.28;;
36443;SDS011;24692;45.642;13.806;2024-01-27T09:30:54;42.58;;;36.42;;
36443;SDS011;24692;45.642;13.806;2024-01-27T09:33:20;43.00;;;35.35;;
36443;SDS011;24692;45.642;13.806;2024-01-27T09:35:48;48.42;;;37.45;;
36443;SDS011;24692;45.642;13.806;2024-01-27T09:38:14;41.90;;;35.80;;
36443;SDS011;24692;45.642;13.806;2024-01-27T09:40:40;40.85;;;34.45;;
36443;SDS011;24692;45.642;13.806;2024-01-27T09:43:06;39.88;;;34.55;;
36443;SDS011;24692;45.642;13.806;2024-01-27T09:45:38;43.75;;;36.58;;
36443;SDS011;24692;45.642;13.806;2024-01-27T09:48:04;41.60;;;35.50;;
36443;SDS011;24692;45.642;13.806;2024-01-27T09:50:33;43.10;;;36.30;;
36443;SDS011;24692;45.642;13.806;2024-01-27T09:52:59;48.33;;;39.95;;
36443;SDS011;24692;45.642;13.806;2024-01-27T09:55:25;50.03;;;41.80;;
36443;SDS011;24692;45.642;13.806;2024-01-27T09:57:51;52.30;;;43.03;;
36443;SDS011;24692;45.642;13.806;2024-01-27T10:00:18;53.13;;;43.40;;
36443;SDS011;24692;45.642;13.806;2024-01-27T10:02:45;51.63;;;40.65;;
36443;SDS011;24692;45.642;13.806;2024-01-27T10:05:14;51.15;;;41.67;;
36443;SDS011;24692;45.642;13.806;2024-01-27T10:07:40;46.72;;;39.40;;
36443;SDS011;24692;45.642;13.806;2024-01-27T10:10:07;47.22;;;39.55;;
36443;SDS011;24692;45.642;13.806;2024-01-27T10:12:32;47.20;;;39.40;;
36443;SDS011;24692;45.642;13.806;2024-01-27T10:15:04;45.55;;;38.13;;
36443;SDS011;24692;45.642;13.806;2024-01-27T10:17:30;44.70;;;38.05;;
36443;SDS011;24692;45.642;13.806;2024-01-27T10:20:03;33.75;;;25.90;;
36443;SDS011;24692;45.642;13.806;2024-01-27T10:22:42;30.77;;;25.38;;
36443;SDS011;24692;45.642;13.806;2024-01-27T10:25:09;38.28;;;31.23;;
36443;SDS011;24692;45.642;13.806;2024-01-27T10:27:35;40.75;;;34.15;;
36443;SDS011;24692;45.642;13.806;2024-01-27T10:30:01;41.17;;;35.30;;
36443;SDS011;24692;45.642;13.806;2024-01-27T10:32:28;43.83;;;37.88;;
36443;SDS011;24692;45.642;13.806;2024-01-27T10:35:03;36.03;;;31.08;;
36443;SDS011;24692;45.642;13.806;2024-01-27T10:37:36;51.00;;;39.75;;
36443;SDS011;24692;45.642;13.806;2024-01-27T10:40:02;49.00;;;41.30;;
36443;SDS011;24692;45.642;13.806;2024-01-27T10:42:35;51.17;;;42.97;;
36443;SDS011;24692;45.642;13.806;2024-01-27T10:45:02;49.67;;;39.45;;
36443;SDS011;24692;45.642;13.806;2024-01-27T10:47:29;47.25;;;37.97;;
36443;SDS011;24692;45.642;13.806;2024-01-27T10:49:56;43.75;;;35.08;;
36443;SDS011;24692;45.642;13.806;2024-01-27T10:52:24;42.60;;;35.38;;
36443;SDS011;24692;45.642;13.806;2024-01-27T10:55:00;42.08;;;33.55;;
36443;SDS011;24692;45.642;13.806;2024-01-27T10:57:32;47.72;;;36.20;;
36443;SDS011;24692;45.642;13.806;2024-01-27T11:00:00;48.65;;;39.92;;
36443;SDS011;24692;45.642;13.806;2024-01-27T11:02:31;44.35;;;37.15;;
36443;SDS011;24692;45.642;13.806;2024-01-27T11:04:58;47.08;;;36.30;;
36443;SDS011;24692;45.642;13.806;2024-01-27T11:07:29;47.17;;;38.63;;
36443;SDS011;24692;45.642;13.806;2024-01-27T11:09:57;48.22;;;36.42;;
36443;SDS011;24692;45.642;13.806;2024-01-27T11:12:23;48.67;;;38.80;;
36443;SDS011;24692;45.642;13.806;2024-01-27T11:14:51;48.55;;;39.83;;
36443;SDS011;24692;45.642;13.806;2024-01-27T11:17:17;47.33;;;38.65;;
36443;SDS011;24692;45.642;13.806;2024-01-27T11:19:44;47.60;;;39.55;;
36443;SDS011;24692;45.642;13.806;2024-01-27T11:22:24;52.88;;;42.90;;
36443;SDS011;24692;45.642;13.806;2024-01-27T11:24:52;49.40;;;39.58;;
36443;SDS011;24692;45.642;13.806;2024-01-27T11:27:35;43.17;;;35.40;;
36443;SDS011;24692;45.642;13.806;2024-01-27T11:30:01;40.20;;;32.72;;
36443;SDS011;24692;45.642;13.806;2024-01-27T11:32:28;33.65;;;27.52;;
36443;SDS011;24692;45.642;13.806;2024-01-27T11:34:55;16.25;;;13.68;;
36443;SDS011;24692;45.642;13.806;2024-01-27T11:37:20;10.10;;;4.82;;
36443;SDS011;24692;45.642;13.806;2024-01-27T11:39:50;3.17;;;2.78;;
36443;SDS011;24692;45.642;13.806;2024-01-27T11:42:17;4.07;;;2.58;;
36443;SDS011;24692;45.642;13.806;2024-01-27T11:44:44;2.90;;;2.40;;
36443;SDS011;24692;45.642;13.806;2024-01-27T11:47:14;2.85;;;2.15;;
36443;SDS011;24692;45.642;13.806;2024-01-27T11:49:41;3.35;;;2.30;;
36443;SDS011;24692;45.642;13.806;2024-01-27T11:52:08;2.05;;;1.83;;
36443;SDS011;24692;45.642;13.806;2024-01-27T11:54:33;3.33;;;2.25;;
36443;SDS011;24692;45.642;13.806;2024-01-27T11:57:00;2.58;;;2.20;;
36443;SDS011;24692;45.642;13.806;2024-01-27T11:59:26;3.45;;;2.50;;
36443;SDS011;24692;45.642;13.806;2024-01-27T12:01:52;3.28;;;2.60;;
36443;SDS011;24692;45.642;13.806;2024-01-27T12:04:18;2.83;;;2.40;;
36443;SDS011;24692;45.642;13.806;2024-01-27T12:06:44;3.75;;;2.35;;
36443;SDS011;24692;45.642;13.806;2024-01-27T12:09:10;3.10;;;2.78;;
36443;SDS011;24692;45.642;13.806;2024-01-27T12:11:41;19.70;;;15.20;;
36443;SDS011;24692;45.642;13.806;2024-01-27T12:14:07;18.20;;;14.93;;
36443;SDS011;24692;45.642;13.806;2024-01-27T12:16:33;47.63;;;36.83;;
36443;SDS011;24692;45.642;13.806;2024-01-27T12:18:59;44.17;;;36.97;;
36443;SDS011;24692;45.642;13.806;2024-01-27T12:21:25;41.65;;;35.25;;
36443;SDS011;24692;45.642;13.806;2024-01-27T12:23:51;46.78;;;39.15;;
36443;SDS011;24692;45.642;13.806;2024-01-27T12:26:30;48.15;;;38.13;;
36443;SDS011;24692;45.642;13.806;2024-01-27T12:28:56;47.42;;;36.97;;
36443;SDS011;24692;45.642;13.806;2024-01-27T12:31:23;47.25;;;37.08;;
36443;SDS011;24692;45.642;13.806;2024-01-27T12:36:21;45.15;;;36.13;;
36443;SDS011;24692;45.642;13.806;2024-01-27T12:38:52;47.67;;;38.40;;
36443;SDS011;24692;45.642;13.806;2024-01-27T12:41:25;48.63;;;37.08;;
36443;SDS011;24692;45.642;13.806;2024-01-27T12:43:51;49.83;;;37.92;;
36443;SDS011;24692;45.642;13.806;2024-01-27T12:46:18;48.42;;;36.20;;
36443;SDS011;24692;45.642;13.806;2024-01-27T12:48:44;46.17;;;37.60;;
36443;SDS011;24692;45.642;13.806;2024-01-27T12:51:10;47.22;;;37.30;;
36443;SDS011;24692;45.642;13.806;2024-01-27T12:53:39;46.10;;;36.47;;
36443;SDS011;24692;45.642;13.806;2024-01-27T12:56:08;48.20;;;38.33;;
36443;SDS011;24692;45.642;13.806;2024-01-27T12:58:34;48.95;;;36.45;;
36443;SDS011;24692;45.642;13.806;2024-01-27T13:01:00;44.42;;;35.08;;
36443;SDS011;24692;45.642;13.806;2024-01-27T13:03:26;43.70;;;35.80;;
36443;SDS011;24692;45.642;13.806;2024-01-27T13:05:53;30.83;;;25.08;;
36443;SDS011;24692;45.642;13.806;2024-01-27T13:08:19;30.08;;;25.88;;
36443;SDS011;24692;45.642;13.806;2024-01-27T13:10:45;11.88;;;7.47;;
36443;SDS011;24692;45.642;13.806;2024-01-27T13:13:12;4.35;;;3.30;;
36443;SDS011;24692;45.642;13.806;2024-01-27T13:15:37;5.47;;;3.95;;
36443;SDS011;24692;45.642;13.806;2024-01-27T13:18:03;3.10;;;2.40;;
36443;SDS011;24692;45.642;13.806;2024-01-27T13:20:29;4.78;;;3.97;;
36443;SDS011;24692;45.642;13.806;2024-01-27T13:22:55;2.97;;;2.10;;
36443;SDS011;24692;45.642;13.806;2024-01-27T13:25:21;3.15;;;2.05;;
36443;SDS011;24692;45.642;13.806;2024-01-27T13:27:46;3.92;;;3.10;;
36443;SDS011;24692;45.642;13.806;2024-01-27T13:30:13;3.05;;;2.53;;
36443;SDS011;24692;45.642;13.806;2024-01-27T13:32:38;3.55;;;2.40;;
36443;SDS011;24692;45.642;13.806;2024-01-27T13:35:05;2.63;;;2.40;;
36443;SDS011;24692;45.642;13.806;2024-01-27T13:37:32;3.58;;;3.20;;
36443;SDS011;24692;45.642;13.806;2024-01-27T13:39:59;4.28;;;3.20;;
36443;SDS011;24692;45.642;13.806;2024-01-27T13:42:25;4.68;;;3.05;;
36443;SDS011;24692;45.642;13.806;2024-01-27T13:44:51;27.50;;;22.83;;
36443;SDS011;24692;45.642;13.806;2024-01-27T13:47:17;37.95;;;32.05;;
36443;SDS011;24692;45.642;13.806;2024-01-27T13:49:43;48.10;;;37.65;;
36443;SDS011;24692;45.642;13.806;2024-01-27T13:52:09;46.47;;;37.13;;
36443;SDS011;24692;45.642;13.806;2024-01-27T13:54:35;42.65;;;35.75;;
36443;SDS011;24692;45.642;13.806;2024-01-27T13:57:02;47.45;;;35.78;;
36443;SDS011;24692;45.642;13.806;2024-01-27T13:59:28;43.97;;;35.33;;
36443;SDS011;24692;45.642;13.806;2024-01-27T14:01:54;47.88;;;37.28;;
36443;SDS011;24692;45.642;13.806;2024-01-27T14:04:21;47.22;;;35.60;;
36443;SDS011;24692;45.642;13.806;2024-01-27T14:06:49;51.13;;;38.33;;
36443;SDS011;24692;45.642;13.806;2024-01-27T14:09:27;50.83;;;38.17;;